Time;durP1;ratioP1;P1;durP2;ratioP2;P2;SDS_P1;SDS_P2;PMS_P1;PMS_P2;Temp;Humidity;BMP_temperature;BMP_pressure;BME280_temperature;BME280_humidity;BME280_pressure;Samples;Min_cycle;Max_cycle;Signal;HPM_P1;HPM_P2
2022/12/13 00:01:21;;;;;;;39.40;21.75;;;;;;;-4.91;100.00;95783.34;5059155;28;20560;-40
2022/12/13 00:03:52;;;;;;;30.92;19.60;;;;;;;-4.87;100.00;95782.28;5064564;28;20080;-41
2022/12/13 00:06:20;;;;;;;32.28;19.40;;;;;;;-4.87;100.00;95769.44;5057024;28;20142;-46
2022/12/13 00:08:49;;;;;;;36.25;20.25;;;;;;;-4.87;100.00;95774.56;5053293;28;20080;-49
2022/12/13 00:11:17;;;;;;;34.45;19.73;;;;;;;-4.86;100.00;95765.13;5061189;28;20103;-43
2022/12/13 00:13:46;;;;;;;32.72;20.05;;;;;;;-4.88;100.00;95766.94;5054602;28;20087;-45
2022/12/13 00:16:18;;;;;;;28.80;18.35;;;;;;;-4.96;100.00;95769.84;5055451;28;20063;-43
2022/12/13 00:18:47;;;;;;;28.45;18.40;;;;;;;-4.98;100.00;95763.13;5053052;28;20084;-41
2022/12/13 00:21:17;;;;;;;31.20;18.17;;;;;;;-4.95;100.00;95763.81;5059188;28;20084;-46
2022/12/13 00:23:46;;;;;;;;;;;;;;;-4.97;100.00;95759.63;5060550;28;20105;-47
2022/12/13 00:26:16;;;;;;;37.33;20.30;;;;;;;-5.16;100.00;95757.88;5057005;28;20402;-42
2022/12/13 00:28:47;;;;;;;32.47;20.25;;;;;;;-5.59;100.00;95766.56;5053268;28;20115;-41
2022/12/13 00:31:18;;;;;;;33.72;20.15;;;;;;;-5.47;100.00;95765.22;5051627;28;20084;-47
2022/12/13 00:34:06;;;;;;;34.75;19.77;;;;;;;-5.32;100.00;95759.44;5059676;28;20095;-46
2022/12/13 00:36:34;;;;;;;32.08;18.90;;;;;;;-5.48;100.00;95759.25;5052356;28;20087;-44
2022/12/13 00:39:03;;;;;;;62.10;30.02;;;;;;;-5.43;100.00;95748.78;5054791;28;20238;-44
2022/12/13 00:41:32;;;;;;;58.58;29.30;;;;;;;-5.51;100.00;95744.78;5055782;28;20474;-48
2022/12/13 00:44:01;;;;;;;36.08;21.55;;;;;;;-5.55;100.00;95743.25;5054412;28;20080;-47
2022/12/13 00:46:32;;;;;;;35.45;19.88;;;;;;;-5.65;100.00;95747.09;5062448;28;20087;-41
2022/12/13 00:49:01;;;;;;;34.70;21.48;;;;;;;-5.68;100.00;95747.22;5057727;28;20091;-44
2022/12/13 00:51:30;;;;;;;34.72;20.45;;;;;;;-5.67;100.00;95746.34;5056455;28;20091;-49
2022/12/13 00:54:00;;;;;;;31.90;19.02;;;;;;;-5.60;100.00;95747.78;5056424;28;20096;-41
2022/12/13 00:56:29;;;;;;;30.70;18.92;;;;;;;-5.56;100.00;95745.91;5052648;28;20080;-41
2022/12/13 00:58:58;;;;;;;30.60;19.48;;;;;;;-5.88;100.00;95748.09;5059868;28;20521;-40
2022/12/13 01:01:28;;;;;;;35.20;20.20;;;;;;;-5.78;100.00;95749.38;5062654;28;20068;-40
2022/12/13 01:03:59;;;;;;;;;;;;;;;-5.72;100.00;95754.22;5052453;28;20464;-42
2022/12/13 01:06:29;;;;;;;30.50;19.27;;;;;;;-5.70;100.00;95741.34;5058345;28;19964;-46
2022/12/13 01:08:58;;;;;;;33.20;19.15;;;;;;;-5.67;100.00;95745.53;5052812;28;20080;-44
2022/12/13 01:11:26;;;;;;;32.08;19.73;;;;;;;-5.75;100.00;95746.69;5056224;28;20081;-47
2022/12/13 01:13:54;;;;;;;29.38;18.65;;;;;;;-5.72;100.00;95740.56;5051109;28;20087;-47
2022/12/13 01:16:22;;;;;;;29.73;19.58;;;;;;;-5.68;100.00;95742.09;5057167;28;20530;-47
2022/12/13 01:18:51;;;;;;;30.48;17.98;;;;;;;-5.66;100.00;95742.88;5052396;28;20446;-48
2022/12/13 01:21:21;;;;;;;35.00;19.40;;;;;;;-5.72;100.00;95745.69;5051289;28;20167;-41
2022/12/13 01:23:49;;;;;;;32.88;19.50;;;;;;;-5.78;100.00;95749.38;5053586;28;20098;-38
2022/12/13 01:26:19;;;;;;;29.40;18.33;;;;;;;-5.73;100.00;95746.59;5055448;28;20083;-42
2022/12/13 01:28:48;;;;;;;;;;;;;;;-5.89;100.00;95736.13;5060771;28;20083;-40
2022/12/13 01:31:18;;;;;;;29.80;19.20;;;;;;;-5.78;100.00;95733.09;5059749;28;19967;-43
2022/12/13 01:33:46;;;;;;;;;;;;;;;-5.75;100.00;95735.56;5052856;28;20087;-47
2022/12/13 01:36:16;;;;;;;30.02;18.30;;;;;;;-5.90;100.00;95738.78;5054344;28;20015;-42
2022/12/13 01:38:46;;;;;;;31.35;18.98;;;;;;;-5.93;100.00;95733.78;5053606;28;20081;-43
2022/12/13 01:41:15;;;;;;;23.92;16.98;;;;;;;-6.16;100.00;95730.41;5054131;28;20080;-42
2022/12/13 01:43:54;;;;;;;26.13;17.23;;;;;;;-5.94;100.00;95727.00;5052019;28;20080;-42
2022/12/13 01:46:22;;;;;;;24.45;16.70;;;;;;;-5.88;100.00;95729.28;5053879;28;20084;-44
2022/12/13 01:48:55;;;;;;;27.88;17.17;;;;;;;-5.89;100.00;95727.59;5056258;28;20099;-43
2022/12/13 01:51:28;;;;;;;26.23;17.45;;;;;;;-5.95;100.00;95715.91;5053475;28;20088;-41
2022/12/13 01:54:01;;;;;;;25.10;16.90;;;;;;;-5.93;100.00;95718.38;5055095;28;20091;-45
2022/12/13 01:56:33;;;;;;;28.20;17.85;;;;;;;-5.95;100.00;95715.03;5051856;28;20072;-44
2022/12/13 01:59:02;;;;;;;24.15;18.27;;;;;;;-5.96;100.00;95711.66;5058440;28;20095;-43
2022/12/13 02:01:31;;;;;;;24.40;17.27;;;;;;;-5.91;100.00;95712.28;5057229;28;20534;-43
2022/12/13 02:03:59;;;;;;;24.13;17.40;;;;;;;-5.90;100.00;95710.53;5051012;28;20098;-44
2022/12/13 02:06:32;;;;;;;30.48;18.05;;;;;;;-5.91;100.00;95706.31;5054294;28;20080;-45
2022/12/13 02:09:04;;;;;;;24.10;15.82;;;;;;;-5.94;100.00;95703.91;5051474;28;20080;-46
2022/12/13 02:11:33;;;;;;;22.73;16.55;;;;;;;-5.98;100.00;95710.88;5054702;28;20088;-44
2022/12/13 02:14:02;;;;;;;23.15;17.45;;;;;;;-6.03;100.00;95705.94;5053659;28;20186;-44
2022/12/13 02:16:41;;;;;;;21.67;15.75;;;;;;;-5.98;100.00;95701.47;5052444;28;20080;-46
2022/12/13 02:19:36;;;;;;;21.93;17.20;;;;;;;-6.03;100.00;95698.22;5049629;28;20092;-53
2022/12/13 02:22:13;;;;;;;21.33;16.00;;;;;;;-5.95;100.00;95694.50;5046989;28;20084;-45
2022/12/13 02:24:58;;;;;;;25.20;17.27;;;;;;;-6.02;100.00;95694.78;5053502;28;20128;-48
2022/12/13 02:27:43;;;;;;;26.52;18.35;;;;;;;-6.01;100.00;95691.31;5059885;28;20515;-45
2022/12/13 02:30:21;;;;;;;26.75;18.95;;;;;;;-6.09;100.00;95690.81;5051643;28;20091;-41
2022/12/13 02:33:00;;;;;;;26.00;17.58;;;;;;;-6.12;100.00;95688.38;5050972;28;20080;-45
2022/12/13 02:35:33;;;;;;;27.50;18.60;;;;;;;-6.12;100.00;95688.38;5052445;28;20079;-41
2022/12/13 02:38:06;;;;;;;27.75;17.77;;;;;;;-6.12;100.00;95682.41;5053736;28;20562;-39
2022/12/13 02:40:38;;;;;;;27.75;18.10;;;;;;;-6.16;100.00;95676.53;5054418;28;20515;-47
2022/12/13 02:43:09;;;;;;;28.67;18.17;;;;;;;-6.28;100.00;95671.91;5051764;28;20706;-45
2022/12/13 02:45:44;;;;;;;27.77;19.05;;;;;;;-6.27;100.00;95668.44;5054028;28;20100;-44
2022/12/13 02:48:14;;;;;;;28.55;17.98;;;;;;;-6.60;100.00;95670.66;5055535;28;20080;-43
2022/12/13 02:50:43;;;;;;;24.70;18.23;;;;;;;-6.43;100.00;95675.09;5053285;28;20135;-45
2022/12/13 02:53:12;;;;;;;26.23;17.80;;;;;;;-6.33;100.00;95668.69;5052665;28;20096;-39
2022/12/13 02:55:41;;;;;;;25.92;18.42;;;;;;;-6.22;100.00;95671.69;5052647;28;20470;-41
2022/12/13 02:58:12;;;;;;;26.52;18.40;;;;;;;-6.17;100.00;95662.03;5051825;28;20486;-41
2022/12/13 03:00:51;;;;;;;28.70;18.15;;;;;;;-6.21;100.00;95653.63;5054387;28;20072;-41
2022/12/13 03:03:26;;;;;;;26.67;18.38;;;;;;;-6.19;100.00;95648.47;5053277;28;20652;-46
2022/12/13 03:08:54;;;;;;;25.02;17.50;;;;;;;-6.16;100.00;95644.91;5054285;28;20089;-43
2022/12/13 03:11:25;;;;;;;27.98;19.30;;;;;;;-6.31;100.00;95636.97;5053376;28;20400;-44
2022/12/13 03:13:54;;;;;;;28.15;17.83;;;;;;;-6.29;100.00;95637.75;5053054;28;20561;-40
2022/12/13 03:16:28;;;;;;;27.38;18.77;;;;;;;-6.33;100.00;95635.34;5053593;28;20085;-42
2022/12/13 03:19:00;;;;;;;27.77;19.05;;;;;;;-6.00;100.00;95639.06;5054836;28;20454;-43
2022/12/13 03:21:29;;;;;;;30.98;19.48;;;;;;;-6.07;100.00;95637.66;5051511;28;20072;-40
2022/12/13 03:23:57;;;;;;;27.77;19.05;;;;;;;-6.04;100.00;95634.16;5053813;28;20088;-46
2022/12/13 03:26:26;;;;;;;26.58;18.45;;;;;;;-6.21;100.00;95625.41;5050574;28;20558;-43
2022/12/13 03:28:54;;;;;;;27.67;19.33;;;;;;;-6.15;100.00;95623.50;5063674;28;20084;-42
2022/12/13 03:31:23;;;;;;;28.05;18.38;;;;;;;-6.25;100.00;95625.63;5059904;28;20538;-47
2022/12/13 03:33:52;;;;;;;28.90;19.00;;;;;;;-6.20;100.00;95639.06;5056929;28;20083;-40
2022/12/13 03:36:21;;;;;;;27.10;18.73;;;;;;;-5.95;100.00;95631.19;5051815;28;20095;-42
2022/12/13 03:38:51;;;;;;;26.60;19.63;;;;;;;-5.85;100.00;95631.59;5057281;28;20091;-41
2022/12/13 03:41:21;;;;;;;29.38;20.13;;;;;;;-5.75;100.00;95644.00;5058469;28;20092;-39
2022/12/13 03:43:50;;;;;;;30.00;20.15;;;;;;;-5.64;100.00;95629.81;5060394;28;20138;-39
2022/12/13 03:46:18;;;;;;;31.17;20.15;;;;;;;-5.58;100.00;95638.09;5058851;28;20092;-42
2022/12/13 03:48:46;;;;;;;29.58;19.80;;;;;;;-5.48;100.00;95641.09;5064392;28;20099;-40
2022/12/13 03:51:16;;;;;;;28.38;20.02;;;;;;;-5.74;100.00;95637.13;5057722;28;20091;-45
2022/12/13 03:53:44;;;;;;;29.35;18.20;;;;;;;-5.62;100.00;95628.03;5057149;28;20076;-44
2022/12/13 03:56:13;;;;;;;32.30;20.77;;;;;;;-5.67;100.00;95625.66;5051658;28;20080;-39
2022/12/13 03:58:42;;;;;;;30.23;18.00;;;;;;;-5.74;100.00;95625.09;5065711;28;20090;-41
2022/12/13 04:01:11;;;;;;;32.25;19.35;;;;;;;-5.60;100.00;95623.66;5056947;28;20448;-44
2022/12/13 04:03:42;;;;;;;29.95;18.75;;;;;;;-5.61;100.00;95617.69;5053894;28;20084;-43
2022/12/13 04:06:10;;;;;;;32.72;17.73;;;;;;;-5.72;100.00;95615.59;5062052;28;20077;-50
2022/12/13 04:08:40;;;;;;;29.20;18.27;;;;;;;-5.70;100.00;95622.41;5056276;28;20084;-42
2022/12/13 04:13:51;;;;;;;42.53;22.45;;;;;;;-5.57;100.00;95615.84;5033024;28;20084;-45
2022/12/13 04:16:19;;;;;;;38.80;20.92;;;;;;;-5.92;100.00;95613.03;5068129;28;20080;-43
2022/12/13 04:18:48;;;;;;;33.80;20.85;;;;;;;-5.97;100.00;95609.88;5055300;28;20077;-40
2022/12/13 04:21:16;;;;;;;38.88;22.88;;;;;;;-5.82;100.00;95618.63;5057357;28;20091;-44
2022/12/13 04:23:46;;;;;;;40.63;23.65;;;;;;;-5.86;100.00;95617.09;5059454;28;20080;-41
2022/12/13 04:26:14;;;;;;;37.95;23.52;;;;;;;-5.69;100.00;95616.38;5055958;28;22210;-43
2022/12/13 04:28:42;;;;;;;36.28;22.80;;;;;;;-5.67;100.00;95620.53;5056698;28;20088;-45
2022/12/13 04:31:15;;;;;;;36.85;21.92;;;;;;;-5.59;100.00;95623.59;5059959;28;20076;-45
2022/12/13 04:33:43;;;;;;;37.88;22.98;;;;;;;-5.63;100.00;95622.06;5060832;28;20079;-43
2022/12/13 04:36:18;;;;;;;34.58;21.85;;;;;;;-5.74;100.00;95619.97;5060355;28;20088;-41
2022/12/13 04:39:01;;;;;;;38.30;23.70;;;;;;;-5.66;100.00;95616.22;5055146;28;20478;-41
2022/12/13 04:41:30;;;;;;;;;;;;;;;-5.66;100.00;95617.06;5054799;28;20091;-43
2022/12/13 04:44:02;;;;;;;37.47;22.77;;;;;;;-5.70;100.00;95619.84;5059160;28;19959;-40
2022/12/13 04:46:30;;;;;;;37.78;22.30;;;;;;;-5.55;100.00;95614.84;5055948;28;20068;-44
2022/12/13 04:48:59;;;;;;;35.70;22.73;;;;;;;-5.59;100.00;95609.91;5055673;28;20076;-43
2022/12/13 04:51:27;;;;;;;39.45;24.38;;;;;;;-5.74;100.00;95616.56;5058480;28;20564;-45
2022/12/13 04:53:56;;;;;;;37.53;23.15;;;;;;;-5.74;100.00;95608.88;5056595;28;20072;-40
2022/12/13 04:56:45;;;;;;;45.05;24.98;;;;;;;-5.72;100.00;95610.44;5060677;28;20076;-40
2022/12/13 04:59:13;;;;;;;37.97;23.55;;;;;;;-5.63;100.00;95600.69;5057846;28;20128;-43
2022/12/13 05:01:42;;;;;;;42.47;23.48;;;;;;;-5.64;100.00;95605.00;5056026;28;20084;-41
2022/12/13 05:04:10;;;;;;;36.80;18.27;;;;;;;-5.80;100.00;95607.41;5061857;28;20561;-42
2022/12/13 05:06:39;;;;;;;32.63;17.17;;;;;;;-5.55;100.00;95601.16;5060270;28;20072;-44
2022/12/13 05:09:07;;;;;;;41.78;21.13;;;;;;;-5.66;100.00;95606.78;5050127;28;20095;-44
2022/12/13 05:11:39;;;;;;;33.97;18.00;;;;;;;-5.57;100.00;95603.00;5063038;28;20501;-43
2022/12/13 05:14:14;;;;;;;37.45;18.52;;;;;;;-5.58;100.00;95597.00;5056863;28;20075;-42
2022/12/13 05:16:52;;;;;;;40.95;23.35;;;;;;;-5.69;100.00;95598.38;5050055;28;20068;-42
2022/12/13 05:19:20;;;;;;;43.15;23.70;;;;;;;-5.58;100.00;95591.88;5052028;28;20580;-43
2022/12/13 05:21:58;;;;;;;26.30;16.90;;;;;;;-5.84;100.00;95595.59;5056364;28;20088;-40
2022/12/13 05:24:30;;;;;;;38.08;20.85;;;;;;;-5.60;100.00;95590.28;5056179;28;20190;-40
2022/12/13 05:26:59;;;;;;;38.33;23.15;;;;;;;-5.76;100.00;95597.81;5055929;28;20087;-44
2022/12/13 05:29:28;;;;;;;33.28;18.10;;;;;;;-5.53;100.00;95589.94;5062524;28;20132;-41
2022/12/13 05:31:57;;;;;;;30.45;18.17;;;;;;;-6.00;100.00;95594.63;5061134;28;20080;-40
2022/12/13 05:34:25;;;;;;;26.08;16.65;;;;;;;-5.84;100.00;95594.78;5053677;28;20081;-44
2022/12/13 05:36:54;;;;;;;27.88;17.20;;;;;;;-5.82;100.00;95588.66;5056240;28;20080;-40
2022/12/13 05:39:22;;;;;;;22.63;15.52;;;;;;;-6.16;100.00;95588.47;5057128;28;20081;-43
2022/12/13 05:41:58;;;;;;;35.97;18.58;;;;;;;-5.95;100.00;95587.56;5050224;28;20084;-42
2022/12/13 05:44:32;;;;;;;34.25;19.38;;;;;;;-6.07;100.00;95591.47;5063783;28;20076;-41
2022/12/13 05:47:01;;;;;;;35.17;19.95;;;;;;;-5.54;100.00;95590.00;5055736;28;20107;-45
2022/12/13 05:49:30;;;;;;;39.45;21.20;;;;;;;-5.54;100.00;95595.13;5056246;28;20079;-41
2022/12/13 05:51:59;;;;;;;27.97;14.63;;;;;;;-5.45;100.00;95589.59;5049775;28;20080;-46
2022/12/13 05:54:27;;;;;;;36.35;16.98;;;;;;;-5.14;100.00;95590.75;5049798;28;20470;-43
2022/12/13 05:56:56;;;;;;;43.35;23.20;;;;;;;-5.48;100.00;95592.28;5051927;28;20087;-42
2022/12/13 05:59:24;;;;;;;33.97;18.27;;;;;;;-5.41;100.00;95583.41;5062545;28;20067;-42
2022/12/13 06:01:54;;;;;;;32.38;16.83;;;;;;;-5.60;100.00;95580.84;5060484;28;20068;-41
2022/12/13 06:04:22;;;;;;;36.97;18.05;;;;;;;-5.56;100.00;95581.53;5049563;28;20080;-43
2022/12/13 06:06:51;;;;;;;46.65;19.90;;;;;;;-5.19;100.00;95569.59;5056732;28;20084;-44
2022/12/13 06:09:20;;;;;;;39.47;18.33;;;;;;;-5.18;100.00;95561.78;5061418;28;20072;-45
2022/12/13 06:11:48;;;;;;;26.20;13.25;;;;;;;-5.26;100.00;95567.28;5050655;28;20690;-43
2022/12/13 06:14:17;;;;;;;27.63;14.85;;;;;;;-5.43;100.00;95574.94;5060728;28;20075;-42
2022/12/13 06:16:51;;;;;;;33.63;15.95;;;;;;;-5.44;100.00;95575.81;5059711;28;20452;-44
2022/12/13 06:19:22;;;;;;;56.50;21.58;;;;;;;-5.55;100.00;95578.06;5058637;28;20080;-47
2022/12/13 06:21:51;;;;;;;57.28;24.55;;;;;;;-4.88;100.00;95581.81;5055435;28;20076;-42
2022/12/13 06:24:21;;;;;;;38.05;17.98;;;;;;;-5.07;100.00;95587.81;5050435;28;20080;-39
2022/12/13 06:26:50;;;;;;;56.40;25.67;;;;;;;-4.90;100.00;95581.06;5061741;28;20082;-42
2022/12/13 06:29:20;;;;;;;37.30;16.98;;;;;;;-4.98;100.00;95585.75;5065431;28;20522;-42
2022/12/13 06:31:53;;;;;;;44.85;20.27;;;;;;;-4.80;100.00;95580.53;5056243;28;20084;-42
2022/12/13 06:34:33;;;;;;;48.10;21.00;;;;;;;-4.33;100.00;95577.41;5049084;28;20817;-43
2022/12/13 06:37:01;;;;;;;41.72;19.40;;;;;;;-4.27;100.00;95575.41;5048856;28;20573;-42
2022/12/13 06:39:30;;;;;;;46.67;22.20;;;;;;;-4.18;100.00;95582.69;5048309;28;20089;-41
2022/12/13 06:42:01;;;;;;;47.03;22.45;;;;;;;-4.15;100.00;95583.34;5055810;28;20063;-46
2022/12/13 06:44:30;;;;;;;42.95;20.67;;;;;;;-3.99;100.00;95586.00;5055751;28;20079;-43
2022/12/13 06:46:59;;;;;;;30.83;16.60;;;;;;;-3.80;100.00;95585.03;5049541;28;20541;-43
2022/12/13 06:49:41;;;;;;;;;;;;;;;-4.15;100.00;95590.25;5065842;28;20076;-38
2022/12/13 06:52:13;;;;;;;59.88;26.30;;;;;;;-4.16;100.00;95593.75;5060352;28;19963;-39
2022/12/13 06:54:41;;;;;;;56.80;27.98;;;;;;;-4.01;100.00;95582.66;5062427;28;20119;-48
2022/12/13 06:57:10;;;;;;;51.15;22.63;;;;;;;-3.51;100.00;95580.94;5059336;28;20095;-43
2022/12/13 06:59:39;;;;;;;47.45;22.10;;;;;;;-3.87;100.00;95584.53;5064862;28;20107;-44
2022/12/13 07:02:08;;;;;;;45.97;21.67;;;;;;;-3.59;100.00;95586.50;5054546;28;20115;-43
2022/12/13 07:04:55;;;;;;;41.75;20.92;;;;;;;-3.51;100.00;95586.94;5060983;28;20080;-42
2022/12/13 07:07:24;;;;;;;42.75;19.42;;;;;;;-3.60;100.00;95592.56;5055762;28;20084;-40
2022/12/13 07:09:53;;;;;;;42.85;19.83;;;;;;;-3.83;100.00;95602.31;5059286;28;20082;-40
2022/12/13 07:12:22;;;;;;;37.05;18.88;;;;;;;-3.54;100.00;95597.41;5070323;28;20067;-40
2022/12/13 07:14:50;;;;;;;50.85;23.23;;;;;;;-3.99;100.00;95598.88;5070161;28;20084;-41
2022/12/13 07:17:19;;;;;;;38.45;18.75;;;;;;;-4.19;100.00;95601.63;5052643;28;20083;-41
2022/12/13 07:20:08;;;;;;;44.45;22.63;;;;;;;-3.82;100.00;95605.72;5059452;28;20091;-39
2022/12/13 07:22:37;;;;;;;39.40;21.27;;;;;;;-3.91;100.00;95591.56;5062108;28;20443;-40
2022/12/13 07:25:14;;;;;;;21.88;13.88;;;;;;;-3.97;100.00;95591.06;5060789;28;20154;-43
2022/12/13 07:27:58;;;;;;;24.25;14.63;;;;;;;-4.31;100.00;95593.56;5065110;28;20076;-42
2022/12/13 07:30:30;;;;;;;42.13;20.35;;;;;;;-4.11;100.00;95597.72;5065896;28;20087;-46
2022/12/13 07:33:00;;;;;;;44.60;20.35;;;;;;;-3.82;100.00;95600.56;5059066;28;20076;-45
2022/12/13 07:35:31;;;;;;;31.48;17.17;;;;;;;-3.85;100.00;95605.91;5057586;28;20541;-44
2022/12/13 07:38:04;;;;;;;47.40;22.80;;;;;;;-3.73;100.00;95600.09;5062621;28;20386;-40
2022/12/13 07:40:33;;;;;;;34.53;18.80;;;;;;;-3.55;100.00;95594.91;5064060;28;20072;-42
2022/12/13 07:43:02;;;;;;;43.25;20.90;;;;;;;-3.53;100.00;95593.91;5052193;28;20474;-43
2022/12/13 07:45:30;;;;;;;38.30;20.27;;;;;;;-3.48;100.00;95589.34;5053883;28;20076;-40
2022/12/13 07:48:03;;;;;;;35.60;18.90;;;;;;;-3.77;100.00;95593.44;5061209;28;20534;-41
2022/12/13 07:50:32;;;;;;;45.70;20.92;;;;;;;-3.70;100.00;95591.38;5062678;28;20114;-40
2022/12/13 07:53:05;;;;;;;38.70;20.10;;;;;;;-3.48;100.00;95594.47;5058795;28;20091;-41
2022/12/13 07:55:34;;;;;;;33.50;18.25;;;;;;;-3.40;100.00;95591.53;5058174;28;20470;-41
2022/12/13 07:58:06;;;;;;;31.65;17.52;;;;;;;-3.49;100.00;95600.56;5052162;28;20083;-41
2022/12/13 08:00:35;;;;;;;32.88;17.08;;;;;;;-3.53;100.00;95608.53;5051885;28;20652;-40
2022/12/13 08:03:04;;;;;;;38.05;20.17;;;;;;;-3.58;100.00;95609.63;5058455;28;20526;-40
2022/12/13 08:05:34;;;;;;;41.72;21.83;;;;;;;-3.55;100.00;95603.44;5055124;28;20084;-40
2022/12/13 08:08:07;;;;;;;36.25;18.25;;;;;;;-3.63;100.00;95610.75;5060714;28;20076;-41
2022/12/13 08:10:36;;;;;;;32.65;18.33;;;;;;;-3.68;100.00;95607.56;5059434;28;20084;-43
2022/12/13 08:13:05;;;;;;;36.33;17.52;;;;;;;-3.52;100.00;95605.88;5058437;28;20068;-44
2022/12/13 08:15:33;;;;;;;42.30;21.70;;;;;;;-3.41;100.00;95606.13;5057530;28;20541;-42
2022/12/13 08:18:02;;;;;;;46.70;20.13;;;;;;;-3.26;100.00;95609.66;5052862;28;20072;-43
2022/12/13 08:20:31;;;;;;;38.53;18.42;;;;;;;-4.03;100.00;95602.50;5066871;28;20552;-43
2022/12/13 08:23:00;;;;;;;38.67;19.48;;;;;;;-3.65;100.00;95595.41;5065037;28;20073;-40
2022/12/13 08:25:30;;;;;;;49.75;22.00;;;;;;;-3.32;100.00;95602.25;5058996;28;20079;-44
2022/12/13 08:27:58;;;;;;;51.35;22.08;;;;;;;-3.26;100.00;95601.94;5066800;28;20182;-46
2022/12/13 08:30:31;;;;;;;32.92;14.52;;;;;;;-3.74;100.00;95603.59;5056616;28;20088;-42
2022/12/13 08:32:59;;;;;;;37.92;20.33;;;;;;;-3.59;100.00;95594.22;5059962;28;20080;-44
2022/12/13 08:35:32;;;;;;;46.83;22.45;;;;;;;-3.75;100.00;95601.94;5050844;28;20077;-41
2022/12/13 08:38:03;;;;;;;43.05;20.23;;;;;;;-3.51;100.00;95591.25;5053837;28;20447;-43
2022/12/13 08:40:32;;;;;;;45.72;23.63;;;;;;;-3.67;100.00;95602.38;5051196;28;20085;-44
2022/12/13 08:43:01;;;;;;;31.77;16.40;;;;;;;-3.45;100.00;95603.81;5059670;28;20083;-43
2022/12/13 08:45:30;;;;;;;43.15;20.30;;;;;;;-2.97;100.00;95604.69;5056867;28;20077;-43
2022/12/13 08:47:59;;;;;;;39.15;16.65;;;;;;;-3.16;100.00;95616.00;5056762;28;20122;-42
2022/12/13 08:50:28;;;;;;;32.67;17.52;;;;;;;-2.83;100.00;95616.81;5067329;28;20092;-45
2022/12/13 08:52:57;;;;;;;43.10;20.02;;;;;;;-2.45;100.00;95607.75;5060646;28;20084;-46
2022/12/13 08:55:27;;;;;;;44.75;20.88;;;;;;;-2.59;100.00;95617.19;5053506;28;20091;-42
2022/12/13 08:58:03;;;;;;;39.00;20.52;;;;;;;-2.68;100.00;95624.56;5055840;28;20064;-43
2022/12/13 09:00:32;;;;;;;41.33;19.33;;;;;;;-2.66;100.00;95619.28;5057281;28;20084;-43
2022/12/13 09:03:04;;;;;;;38.92;19.75;;;;;;;-2.53;100.00;95625.44;5061722;28;20080;-43
2022/12/13 09:05:37;;;;;;;34.25;19.48;;;;;;;-2.80;100.00;95621.81;5061241;28;20076;-47
2022/12/13 09:08:05;;;;;;;38.33;18.90;;;;;;;-2.55;100.00;95616.13;5056397;28;20080;-46
2022/12/13 09:11:00;;;;;;;41.30;20.65;;;;;;;-2.08;100.00;95616.00;5057228;28;20084;-42
2022/12/13 09:13:39;;;;;;;37.85;18.92;;;;;;;-2.17;100.00;95609.63;5056695;28;20084;-43
2022/12/13 09:16:13;;;;;;;37.03;17.83;;;;;;;-2.29;100.00;95614.66;5056006;28;20088;-46
2022/12/13 09:18:51;;;;;;;37.92;20.23;;;;;;;-2.33;100.00;95620.91;5057290;28;20542;-45
2022/12/13 09:21:24;;;;;;;28.70;15.95;;;;;;;-2.71;100.00;95623.91;5062236;28;20076;-44
2022/12/13 09:23:59;;;;;;;33.50;18.40;;;;;;;-2.36;100.00;95614.16;5056212;28;20080;-45
2022/12/13 09:26:30;;;;;;;38.20;20.13;;;;;;;-2.34;100.00;95608.91;5053752;28;20064;-44
2022/12/13 09:29:06;;;;;;;29.98;15.68;;;;;;;-2.38;100.00;95614.25;5058282;28;20068;-42
2022/12/13 09:31:39;;;;;;;39.28;21.25;;;;;;;-2.73;100.00;95607.66;5049366;28;20077;-43
2022/12/13 09:34:08;;;;;;;25.67;15.95;;;;;;;-2.72;100.00;95606.72;5057744;28;20064;-45
2022/12/13 09:36:37;;;;;;;34.80;18.80;;;;;;;-2.86;100.00;95602.31;5049657;28;20478;-42
2022/12/13 09:39:05;;;;;;;36.83;19.35;;;;;;;-2.80;100.00;95593.44;5057859;28;20525;-42
2022/12/13 09:41:37;;;;;;;39.90;22.35;;;;;;;-3.21;100.00;95606.84;5051650;28;20555;-40
2022/12/13 09:44:14;;;;;;;32.70;18.83;;;;;;;-2.72;100.00;95598.97;5060806;28;20060;-41
2022/12/13 09:47:03;;;;;;;41.83;21.60;;;;;;;-2.50;100.00;95593.47;5055147;28;20076;-39
2022/12/13 09:49:43;;;;;;;31.77;18.15;;;;;;;-2.36;100.00;95587.53;5066579;28;20473;-45
2022/12/13 09:52:22;;;;;;;34.73;21.23;;;;;;;-2.56;100.00;95591.22;5057567;28;20068;-44
2022/12/13 09:54:53;;;;;;;40.60;21.77;;;;;;;-2.70;100.00;95582.50;5048560;28;20087;-41
2022/12/13 09:57:26;;;;;;;25.80;15.40;;;;;;;-2.32;100.00;95582.09;5052623;28;20205;-40
2022/12/13 10:00:03;;;;;;;38.20;20.05;;;;;;;-1.84;100.00;95576.72;5056233;28;20076;-44
2022/12/13 10:02:33;;;;;;;29.65;16.70;;;;;;;-1.84;100.00;95579.31;5062612;28;20064;-42
2022/12/13 10:05:23;;;;;;;35.10;19.10;;;;;;;-1.78;100.00;95578.97;5056181;28;20057;-40
2022/12/13 10:08:08;;;;;;;26.95;16.58;;;;;;;-1.92;100.00;95575.44;5063555;28;20083;-45
2022/12/13 10:10:36;;;;;;;38.13;19.42;;;;;;;-1.24;100.00;95569.63;5061688;28;20125;-43
2022/12/13 10:13:12;;;;;;;31.85;16.95;;;;;;;-1.77;100.00;95563.34;5058481;28;20467;-49
2022/12/13 10:15:42;;;;;;;31.30;17.55;;;;;;;-2.31;100.00;95564.84;5055543;28;20072;-44
2022/12/13 10:18:13;;;;;;;27.73;16.23;;;;;;;-2.18;100.00;95566.63;5057157;28;20091;-45
2022/12/13 10:20:41;;;;;;;;;;;;;;;-2.35;100.00;95571.09;5053924;28;20084;-41
2022/12/13 10:23:11;;;;;;;31.13;18.13;;;;;;;-2.11;100.00;95566.28;5049389;28;19994;-42
2022/12/13 10:26:00;;;;;;;26.38;15.48;;;;;;;-2.27;100.00;95567.19;5054253;28;20095;-41
2022/12/13 10:28:33;;;;;;;39.20;21.95;;;;;;;-2.08;100.00;95569.50;5062572;28;20100;-45
2022/12/13 10:31:02;;;;;;;30.27;17.33;;;;;;;-1.41;100.00;95562.06;5055469;28;20080;-42
2022/12/13 10:33:32;;;;;;;31.77;17.83;;;;;;;-1.41;100.00;95550.88;5056110;28;20085;-45
2022/12/13 10:36:09;;;;;;;36.53;21.02;;;;;;;-1.02;100.00;95534.63;5050816;28;20126;-41
2022/12/13 10:38:39;;;;;;;31.60;18.15;;;;;;;-1.24;100.00;95551.50;5055626;28;20077;-43
2022/12/13 10:41:33;;;;;;;29.98;18.83;;;;;;;-0.52;100.00;95539.16;5060581;28;20095;-44
2022/12/13 10:44:20;;;;;;;29.75;16.95;;;;;;;-1.21;100.00;95551.28;5057065;28;20096;-45
2022/12/13 10:46:58;;;;;;;36.95;18.55;;;;;;;-1.20;100.00;95545.22;5067449;28;20084;-40
2022/12/13 10:49:34;;;;;;;27.45;15.48;;;;;;;-1.15;100.00;95542.34;5056548;28;20483;-44
2022/12/13 10:52:03;;;;;;;20.25;11.88;;;;;;;-1.59;100.00;95542.50;5060015;28;20080;-44
2022/12/13 10:54:33;;;;;;;27.65;16.42;;;;;;;-1.57;100.00;95548.41;5059279;28;20094;-46
2022/12/13 10:57:15;;;;;;;31.90;19.55;;;;;;;-0.90;100.00;95539.03;5059387;28;20090;-42
2022/12/13 10:59:47;;;;;;;22.17;14.73;;;;;;;-0.91;100.00;95537.38;5065392;28;20102;-43
2022/12/13 11:02:30;;;;;;;31.42;18.75;;;;;;;-0.49;100.00;95541.53;5059826;28;20648;-44
2022/12/13 11:05:01;;;;;;;32.72;17.67;;;;;;;-0.16;100.00;95532.47;5056706;28;20076;-45
2022/12/13 11:07:35;;;;;;;26.40;14.95;;;;;;;-1.02;100.00;95540.63;5052508;28;20076;-43
2022/12/13 11:10:17;;;;;;;25.63;15.93;;;;;;;-0.14;100.00;95529.78;5063193;28;20232;-46
2022/12/13 11:12:58;;;;;;;25.92;15.60;;;;;;;-0.76;100.00;95533.81;5060221;28;20077;-47
2022/12/13 11:15:29;;;;;;;33.50;17.10;;;;;;;-0.72;100.00;95531.84;5057631;28;20237;-39
2022/12/13 11:17:59;;;;;;;30.63;19.30;;;;;;;-0.89;100.00;95524.34;5059222;28;20095;-43
2022/12/13 11:20:31;;;;;;;32.90;19.17;;;;;;;-0.71;100.00;95525.75;5052395;28;20518;-42
2022/12/13 11:23:01;;;;;;;30.42;18.05;;;;;;;-0.18;100.00;95528.31;5064089;28;20494;-40
2022/12/13 11:25:33;;;;;;;29.77;16.58;;;;;;;-0.32;100.00;95521.47;5060374;28;20088;-41
2022/12/13 11:28:29;;;;;;;30.10;17.65;;;;;;;-0.92;100.00;95517.59;5055348;28;20472;-43
2022/12/13 11:31:09;;;;;;;27.80;14.70;;;;;;;-0.56;100.00;95516.16;5058690;28;20549;-41
2022/12/13 11:33:42;;;;;;;25.73;13.60;;;;;;;-0.72;100.00;95517.16;5060051;28;20080;-39
2022/12/13 11:36:23;;;;;;;24.15;16.13;;;;;;;-0.90;100.00;95517.50;5064185;28;20095;-41
2022/12/13 11:39:01;;;;;;;17.02;10.95;;;;;;;-0.82;100.00;95515.25;5060854;28;20096;-40